createdAt,value
2019-05-02T00:14:39.449Z,40.50
2019-05-02T00:17:07.784Z,41.00
2019-05-02T00:19:40.062Z,40.50
2019-05-02T00:32:18.444Z,40.50
2019-05-02T00:34:47.317Z,40.50
2019-05-02T00:42:25.918Z,40.30
2019-05-02T00:44:57.492Z,40.40
2019-05-02T01:17:31.031Z,41.60
2019-05-02T01:27:35.999Z,40.40
2019-05-02T01:40:17.764Z,39.90
2019-05-02T01:50:19.509Z,39.80
2019-05-02T01:57:50.929Z,39.90
2019-05-02T02:10:35.872Z,39.80
2019-05-02T02:15:41.850Z,39.70
2019-05-02T02:41:13.071Z,39.40
2019-05-02T03:44:54.937Z,40.60
2019-05-02T03:49:53.078Z,39.80
2019-05-02T04:17:47.255Z,39.20
2019-05-02T04:30:33.678Z,39.10
2019-05-02T04:33:09.552Z,39.10
2019-05-02T05:14:11.260Z,39.00
2019-05-02T06:18:45.168Z,38.90
2019-05-02T06:21:11.322Z,42.40
2019-05-02T06:23:41.284Z,41.90
2019-05-02T06:26:07.956Z,41.30
2019-05-02T06:28:29.912Z,40.80
2019-05-02T06:30:56.062Z,40.40
2019-05-02T06:33:25.921Z,40.20
2019-05-02T06:35:51.841Z,39.90
2019-05-02T06:38:14.600Z,39.80
2019-05-02T06:40:44.643Z,39.70
2019-05-02T06:43:09.674Z,39.50
2019-05-02T06:45:37.736Z,39.60
2019-05-02T06:48:01.252Z,39.60
2019-05-02T06:50:26.319Z,39.60
2019-05-02T06:52:52.481Z,39.60
2019-05-02T06:55:18.659Z,39.40
2019-05-02T06:57:44.820Z,39.40
2019-05-02T07:00:11.012Z,39.40
2019-05-02T07:02:37.158Z,39.60
2019-05-02T07:05:03.308Z,39.50
2019-05-02T07:07:31.401Z,39.50
2019-05-02T07:09:55.666Z,39.60
2019-05-02T07:12:21.821Z,39.50
2019-05-02T07:14:47.977Z,39.60
2019-05-02T07:17:14.147Z,39.50
2019-05-02T07:19:40.297Z,39.50
2019-05-02T07:22:06.849Z,39.60
2019-05-02T07:24:32.997Z,39.40
2019-05-02T07:27:01.969Z,39.50
2019-05-02T07:29:25.381Z,39.70
2019-05-02T07:31:53.538Z,39.70
2019-05-02T07:34:17.736Z,39.60
2019-05-02T07:36:44.692Z,39.60
2019-05-02T07:39:10.846Z,39.60
2019-05-02T07:41:37.301Z,39.60
2019-05-02T07:44:04.442Z,39.60
2019-05-02T07:46:29.443Z,39.70
2019-05-02T07:48:56.656Z,39.60
2019-05-02T07:51:22.639Z,39.70
2019-05-02T07:53:48.546Z,39.80
2019-05-02T07:56:17.607Z,39.70
2019-05-02T07:58:46.805Z,39.60
2019-05-02T08:01:08.209Z,39.60
2019-05-02T08:03:34.752Z,39.60
2019-05-02T08:05:59.954Z,39.60
2019-05-02T08:08:29.828Z,39.60
2019-05-02T08:10:53.826Z,39.60
2019-05-02T08:13:19.446Z,39.80
2019-05-02T08:15:45.708Z,40.30
2019-05-02T08:18:10.721Z,39.80
2019-05-02T08:20:36.893Z,39.70
2019-05-02T08:23:03.842Z,39.80
2019-05-02T08:25:30.007Z,39.80
2019-05-02T08:27:56.158Z,39.70
2019-05-02T08:30:22.516Z,39.80
2019-05-02T08:32:48.672Z,39.90
2019-05-02T08:35:14.847Z,39.70
2019-05-02T08:37:42.961Z,39.90
2019-05-02T08:40:10.559Z,39.80
2019-05-02T08:42:33.819Z,39.90
2019-05-02T08:45:01.140Z,39.90
2019-05-02T08:47:28.548Z,39.80
2019-05-02T08:49:54.626Z,39.80
2019-05-02T08:52:18.213Z,39.90
2019-05-02T08:54:44.377Z,39.80
2019-05-02T08:57:10.533Z,39.90
2019-05-02T08:59:36.703Z,39.70
2019-05-02T09:02:02.848Z,39.70
2019-05-02T09:04:30.563Z,39.90
2019-05-02T09:06:58.765Z,39.90
2019-05-02T09:09:22.819Z,39.80
2019-05-02T09:12:00.975Z,39.90
2019-05-02T09:14:13.888Z,39.90
2019-05-02T09:16:40.058Z,39.80
2019-05-02T09:19:06.242Z,39.90
2019-05-02T09:21:36.003Z,39.80
2019-05-02T09:23:58.612Z,39.70
2019-05-02T09:26:35.206Z,39.80
2019-05-02T09:28:51.666Z,39.90
2019-05-02T09:31:17.143Z,40.00
2019-05-02T09:33:46.839Z,40.00
2019-05-02T09:36:09.495Z,40.00
2019-05-02T09:38:35.640Z,40.00
2019-05-02T09:41:15.396Z,39.90
2019-05-02T09:43:29.260Z,39.80
2019-05-02T09:45:54.286Z,39.90
2019-05-02T09:48:22.827Z,40.10
2019-05-02T09:50:46.660Z,40.10
2019-05-02T09:53:20.358Z,40.10
2019-05-02T09:55:42.045Z,40.20
2019-05-02T09:58:05.988Z,41.00
2019-05-02T10:00:36.057Z,40.30
2019-05-02T10:02:59.115Z,40.30
2019-05-02T10:05:25.282Z,40.30
2019-05-02T10:07:52.599Z,40.30
2019-05-02T10:10:17.652Z,40.40
2019-05-02T10:12:43.806Z,40.30
2019-05-02T10:15:10.024Z,40.30
2019-05-02T10:17:37.526Z,40.30
2019-05-02T10:20:02.396Z,40.50
2019-05-02T10:22:32.212Z,40.40
2019-05-02T10:24:54.925Z,40.30
2019-05-02T10:27:21.677Z,40.30
2019-05-02T10:29:47.305Z,40.30
2019-05-02T10:32:16.681Z,40.40
2019-05-02T10:34:39.709Z,40.40
2019-05-02T10:37:05.921Z,40.30
2019-05-02T10:39:34.084Z,40.40
2019-05-02T10:41:58.285Z,40.40
2019-05-02T10:44:27.214Z,40.40
2019-05-02T10:46:52.333Z,40.30
2019-05-02T10:49:16.833Z,40.30
2019-05-02T10:51:48.897Z,40.30
2019-05-02T10:54:09.196Z,40.50
2019-05-02T10:56:36.126Z,40.40
2019-05-02T10:59:02.351Z,40.40
2019-05-02T11:01:28.472Z,40.30
2019-05-02T11:03:54.641Z,40.30
2019-05-02T11:06:22.235Z,40.40
2019-05-02T11:08:46.992Z,40.40
2019-05-02T11:11:13.175Z,40.30
2019-05-02T11:13:39.325Z,40.40
2019-05-02T11:16:05.507Z,40.40
2019-05-02T11:18:40.325Z,40.30
2019-05-02T11:20:59.089Z,40.30
2019-05-02T11:23:24.122Z,40.30
2019-05-02T11:25:50.277Z,40.30
2019-05-02T11:28:16.429Z,40.40
2019-05-02T11:30:42.585Z,40.50
2019-05-02T11:33:08.758Z,40.60
2019-05-02T11:35:34.915Z,40.50
2019-05-02T11:38:02.492Z,40.40
2019-05-02T11:40:27.252Z,40.50
2019-05-02T11:42:57.212Z,40.40
2019-05-02T11:45:19.628Z,40.30
2019-05-02T11:47:46.193Z,40.40
2019-05-02T11:50:12.368Z,40.40
2019-05-02T11:52:38.526Z,40.50
2019-05-02T11:55:04.688Z,40.60
2019-05-02T11:57:33.118Z,40.50
2019-05-02T11:59:59.441Z,40.50
2019-05-02T12:02:23.262Z,40.40
2019-05-02T12:04:53.959Z,40.40
2019-05-02T12:07:15.627Z,40.50
2019-05-02T12:09:45.648Z,40.60
2019-05-02T12:12:08.774Z,40.50
2019-05-02T12:14:36.509Z,40.50
2019-05-02T12:17:02.627Z,40.50
2019-05-02T12:19:27.332Z,40.60
2019-05-02T12:21:53.496Z,40.60
2019-05-02T12:24:19.806Z,40.50
2019-05-02T12:26:46.621Z,40.60
2019-05-02T12:29:12.294Z,40.60
2019-05-02T12:31:38.368Z,40.60
2019-05-02T12:34:04.525Z,40.60
2019-05-02T12:36:30.676Z,40.50
2019-05-02T12:38:56.831Z,40.60
2019-05-02T12:41:25.156Z,40.60
2019-05-02T12:43:49.198Z,40.60
2019-05-02T12:46:15.362Z,40.60
2019-05-02T12:48:42.262Z,40.70
2019-05-02T12:51:07.717Z,40.60
2019-05-02T12:53:33.881Z,40.60
2019-05-02T12:56:02.073Z,40.60
2019-05-02T12:58:26.224Z,41.30
2019-05-02T13:00:53.083Z,40.60
2019-05-02T13:03:18.601Z,40.60
2019-05-02T13:05:44.776Z,40.60
2019-05-02T13:08:12.240Z,40.70
2019-05-02T13:10:37.124Z,40.70
2019-05-02T13:13:03.276Z,40.60
2019-05-02T13:15:29.465Z,40.60
2019-05-02T13:17:55.642Z,40.60
2019-05-02T13:20:22.941Z,40.60
2019-05-02T13:22:48.006Z,40.60
2019-05-02T13:25:14.169Z,40.60
2019-05-02T13:27:46.026Z,40.60
2019-05-02T13:30:06.544Z,40.60
2019-05-02T13:32:32.697Z,40.60
2019-05-02T13:34:58.850Z,40.60
2019-05-02T13:37:25.000Z,40.60
2019-05-02T13:39:52.939Z,40.60
2019-05-02T13:42:17.380Z,40.60
2019-05-02T13:44:43.564Z,40.60
2019-05-02T13:47:09.723Z,40.60
2019-05-02T13:49:35.903Z,40.60
2019-05-02T13:52:02.552Z,40.60
2019-05-02T13:54:28.256Z,40.60
2019-05-02T13:56:54.433Z,40.70
2019-05-02T13:59:22.164Z,40.70
2019-05-02T14:01:46.780Z,40.60
2019-05-02T14:04:14.931Z,40.60
2019-05-02T14:06:42.016Z,40.70
2019-05-02T14:09:07.980Z,41.40
2019-05-02T14:11:33.223Z,40.70
2019-05-02T14:13:59.389Z,40.70
2019-05-02T14:16:29.274Z,40.70
2019-05-02T14:18:55.450Z,40.70
2019-05-02T14:21:22.403Z,40.70
2019-05-02T14:23:48.577Z,40.70
2019-05-02T14:26:27.522Z,40.70
2019-05-02T14:28:40.954Z,40.70
2019-05-02T14:31:07.100Z,40.70
2019-05-02T14:33:33.256Z,40.70
2019-05-02T14:35:59.408Z,40.60
2019-05-02T14:38:25.562Z,40.70
2019-05-02T14:40:52.109Z,40.70
2019-05-02T14:43:17.955Z,40.80
2019-05-02T14:45:44.137Z,40.70
2019-05-02T14:48:19.299Z,40.70
2019-05-02T14:50:40.669Z,40.70
2019-05-02T14:53:02.719Z,40.80
2019-05-02T14:55:29.250Z,40.60
2019-05-02T14:57:57.069Z,40.80
2019-05-02T15:00:22.184Z,40.80
2019-05-02T15:02:49.127Z,40.80
2019-05-02T15:05:13.665Z,40.90
2019-05-02T15:07:39.830Z,41.00
2019-05-02T15:10:06.720Z,41.10
2019-05-02T15:12:32.560Z,41.20
2019-05-02T15:14:59.176Z,41.20
2019-05-02T15:17:28.048Z,41.20
2019-05-02T15:19:52.693Z,41.30
2019-05-02T15:22:17.742Z,41.40
2019-05-02T15:24:43.892Z,41.40
2019-05-02T15:27:16.662Z,41.50
2019-05-02T15:29:36.241Z,41.50
2019-05-02T15:32:07.126Z,41.60
2019-05-02T15:34:29.472Z,41.60
2019-05-02T15:36:55.630Z,41.50
2019-05-02T15:41:48.710Z,41.60
2019-05-02T15:44:18.825Z,41.60
2019-05-02T15:46:42.512Z,41.70
2019-05-02T15:49:07.112Z,41.70
2019-05-02T15:51:33.290Z,41.80
2019-05-02T15:54:06.123Z,41.80
2019-05-02T15:56:25.661Z,41.80
2019-05-02T15:58:52.205Z,41.70
2019-05-02T16:01:18.024Z,41.80
2019-05-02T16:03:46.273Z,41.80
2019-05-02T16:06:11.778Z,41.80
2019-05-02T16:08:36.608Z,41.80
2019-05-02T16:11:02.995Z,41.90
2019-05-02T16:13:28.977Z,41.90
2019-05-02T16:15:57.119Z,42.00
2019-05-02T16:18:21.614Z,42.00
2019-05-02T16:20:49.236Z,42.00
2019-05-02T16:23:13.773Z,42.00
2019-05-02T16:25:39.965Z,41.90
2019-05-02T16:28:06.225Z,41.90
2019-05-02T16:30:32.333Z,42.00
2019-05-02T16:32:58.494Z,42.10
2019-05-02T16:35:24.668Z,42.10
2019-05-02T16:37:52.356Z,42.30
2019-05-02T16:40:23.872Z,42.40
2019-05-02T16:42:43.188Z,42.40
2019-05-02T16:45:09.387Z,42.50
2019-05-02T16:47:35.548Z,42.60
2019-05-02T16:50:02.466Z,42.70
2019-05-02T16:52:27.907Z,42.60
2019-05-02T16:54:54.097Z,42.80
2019-05-02T16:57:22.151Z,42.50
2019-05-02T16:59:46.452Z,42.60
2019-05-02T17:02:12.611Z,42.70
2019-05-02T17:04:38.768Z,42.90
2019-05-02T17:07:05.856Z,42.70
2019-05-02T17:09:33.888Z,42.90
2019-05-02T17:11:57.303Z,42.90
2019-05-02T17:14:23.453Z,42.70
2019-05-02T17:16:52.428Z,42.90
2019-05-02T17:19:15.789Z,43.10
2019-05-02T17:21:52.741Z,43.10
2019-05-02T17:24:08.319Z,43.60
2019-05-02T17:26:34.476Z,42.90
2019-05-02T17:29:02.427Z,42.90
2019-05-02T17:31:26.848Z,42.90
2019-05-02T17:33:54.909Z,42.80
2019-05-02T17:36:21.581Z,42.80
2019-05-02T17:38:45.456Z,42.90
2019-05-02T17:41:17.222Z,43.10
2019-05-02T17:43:43.695Z,43.10
2019-05-02T17:46:12.742Z,43.10
2019-05-02T17:48:37.472Z,42.90
2019-05-02T17:51:02.302Z,43.10
2019-05-02T17:53:28.204Z,43.10
2019-05-02T17:55:54.381Z,43.10
2019-05-02T17:58:20.564Z,43.10
2019-05-02T18:00:47.367Z,43.10
2019-05-02T18:03:15.380Z,43.10
2019-05-02T18:05:39.101Z,43.10
2019-05-02T18:08:05.853Z,43.10
2019-05-02T18:10:32.324Z,43.00
2019-05-02T18:12:59.922Z,43.30
2019-05-02T18:15:23.896Z,43.10
2019-05-02T18:17:52.185Z,43.00
2019-05-02T18:20:16.239Z,43.30
2019-05-02T18:22:47.174Z,43.10
2019-05-02T18:25:09.365Z,43.10
2019-05-02T18:27:35.519Z,43.10
2019-05-02T18:30:02.240Z,43.10
2019-05-02T18:32:28.477Z,43.10
2019-05-02T18:34:56.827Z,43.10
2019-05-02T18:37:21.886Z,43.10
2019-05-02T18:39:53.339Z,43.00
2019-05-02T18:42:16.595Z,43.10
2019-05-02T18:44:39.452Z,43.10
2019-05-02T18:47:05.602Z,43.20
2019-05-02T18:49:32.210Z,43.10
2019-05-02T18:51:58.187Z,43.10
2019-05-02T18:54:24.381Z,43.20
2019-05-02T18:56:55.035Z,43.10
2019-05-02T18:59:19.788Z,43.20
2019-05-02T19:01:47.310Z,43.30
2019-05-02T19:04:09.184Z,43.30
2019-05-02T19:06:36.277Z,43.30
2019-05-02T19:09:02.137Z,43.30
2019-05-02T19:11:33.757Z,43.20
2019-05-02T19:13:53.984Z,43.20
2019-05-02T19:16:24.953Z,43.10
2019-05-02T19:18:48.923Z,43.20
2019-05-02T19:21:12.740Z,43.30
2019-05-02T19:23:38.799Z,43.40
2019-05-02T19:26:10.131Z,43.30
2019-05-02T19:28:34.631Z,43.20
2019-05-02T19:31:02.044Z,43.20
2019-05-02T19:33:23.590Z,43.20
2019-05-02T19:35:50.738Z,43.30
2019-05-02T19:38:17.100Z,43.20
2019-05-02T19:40:42.863Z,43.30
2019-05-02T19:43:12.130Z,43.50
2019-05-02T19:45:35.618Z,43.50
2019-05-02T19:48:02.619Z,43.40
2019-05-02T19:50:32.227Z,43.50
2019-05-02T19:53:01.101Z,43.40
2019-05-02T19:55:24.235Z,43.30
2019-05-02T19:57:46.565Z,43.40
2019-05-02T20:00:12.708Z,43.40
2019-05-02T20:02:42.322Z,43.40
2019-05-02T20:05:07.822Z,43.40
2019-05-02T20:07:33.969Z,43.40
2019-05-02T20:10:01.924Z,43.30
2019-05-02T20:12:26.328Z,43.40
2019-05-02T20:14:52.510Z,43.40
2019-05-02T20:17:20.681Z,43.40
2019-05-02T20:19:44.867Z,43.40
2019-05-02T20:22:11.850Z,43.50
2019-05-02T20:24:37.237Z,43.50
2019-05-02T20:27:03.387Z,43.60
2019-05-02T20:29:29.557Z,43.60
2019-05-02T20:31:55.712Z,43.60
2019-05-02T20:34:22.645Z,43.70
2019-05-02T20:36:48.804Z,43.60
2019-05-02T20:39:14.964Z,43.70
2019-05-02T20:41:41.951Z,43.70
2019-05-02T20:44:07.337Z,43.70
2019-05-02T20:46:33.495Z,43.70
2019-05-02T20:48:59.656Z,43.70
2019-05-02T20:51:25.813Z,43.70
2019-05-02T20:53:52.770Z,43.70
2019-05-02T20:56:18.676Z,43.60
2019-05-02T20:58:44.836Z,43.70
2019-05-02T21:01:12.357Z,43.50
2019-05-02T21:03:37.174Z,43.60
2019-05-02T21:06:04.987Z,43.70
2019-05-02T21:08:29.553Z,43.60
2019-05-02T21:10:55.703Z,43.50
2019-05-02T21:13:22.118Z,43.60
2019-05-02T21:15:48.053Z,43.60
2019-05-02T21:18:14.200Z,43.50
2019-05-02T21:20:41.792Z,43.50
2019-05-02T21:23:06.575Z,43.40
2019-05-02T21:25:32.755Z,43.40
2019-05-02T21:27:58.909Z,43.40
2019-05-02T21:30:25.854Z,43.50
2019-05-02T21:32:52.100Z,43.40
2019-05-02T21:35:18.226Z,43.10
2019-05-02T21:37:44.389Z,43.40
2019-05-02T21:40:11.876Z,43.30
2019-05-02T21:42:37.838Z,43.40
2019-05-02T21:45:03.980Z,43.30
2019-05-02T21:47:31.762Z,43.30
2019-05-02T21:49:56.329Z,43.30
2019-05-02T21:52:22.730Z,43.30
2019-05-02T21:54:48.665Z,43.20
2019-05-02T21:57:14.809Z,43.90
2019-05-02T21:59:42.126Z,43.10
2019-05-02T22:02:07.164Z,43.20
2019-05-02T22:04:33.332Z,43.10
2019-05-02T22:06:59.499Z,43.20
2019-05-02T22:09:25.659Z,43.10
2019-05-02T22:11:52.232Z,43.10
2019-05-02T22:14:18.020Z,43.10
2019-05-02T22:16:44.956Z,43.00
2019-05-02T22:19:11.143Z,43.00
2019-05-02T22:21:37.312Z,43.10
2019-05-02T22:24:11.036Z,43.00
2019-05-02T22:26:29.678Z,43.00
2019-05-02T22:28:55.836Z,42.90
2019-05-02T22:31:22.714Z,42.90
2019-05-02T22:33:48.189Z,42.90
2019-05-02T22:36:14.332Z,42.90
2019-05-02T22:38:42.220Z,42.80
2019-05-02T22:41:06.682Z,42.80
2019-05-02T22:43:32.827Z,42.80
2019-05-02T22:45:58.980Z,42.80
2019-05-02T22:48:25.136Z,42.80
2019-05-02T22:50:52.248Z,42.90
2019-05-02T22:53:17.485Z,42.80
2019-05-02T22:55:43.646Z,43.50
2019-05-02T22:58:09.801Z,42.80
2019-05-02T23:00:35.955Z,42.80
2019-05-02T23:03:02.117Z,42.70
2019-05-02T23:05:28.269Z,42.70
2019-05-02T23:07:54.428Z,42.80
2019-05-02T23:10:22.078Z,42.70
2019-05-02T23:12:46.792Z,42.50
2019-05-02T23:15:12.950Z,42.70
2019-05-02T23:17:39.120Z,42.60
2019-05-02T23:20:05.261Z,42.70
2019-05-02T23:22:32.363Z,42.50
2019-05-02T23:24:57.626Z,42.60
2019-05-02T23:27:23.791Z,42.60
2019-05-02T23:29:51.922Z,42.60
2019-05-02T23:32:16.129Z,42.60
2019-05-02T23:34:42.299Z,42.60
2019-05-02T23:37:08.456Z,42.60
2019-05-02T23:39:34.644Z,42.50
2019-05-02T23:42:01.977Z,42.50
2019-05-02T23:44:27.004Z,42.30
2019-05-02T23:46:53.154Z,42.60
2019-05-02T23:49:19.323Z,42.60
2019-05-02T23:51:45.479Z,42.50
2019-05-02T23:54:12.849Z,42.40
2019-05-02T23:56:37.836Z,42.40
2019-05-02T23:59:04.002Z,42.40
